Saspamco, Texas
Current Conditions -  °F | °C
As of 1:53 PM on Wednesday 28 Jan 2015 (Local Time) from KSSF Reporting Station
Clear Clear  
Wind Chill: 80°   Ceiling: Unl
Heat Index: 80°   Visibility: 10mi
Dew Point: 37°   Wind: 13mph
Humidity: 21%   Direction: 180°S
Pressure: 30.1"   Gusts: NA
Location:  29.231°N, 98.3845°W
Report Text: KSSF 281953Z 18011KT 10SM CLR 27/03 A3010 RMK AO2 SLP188 T02670028
Loading
Personal Weather Stations






























Interactive Weather Map New forecast layout! Learn more

10-Day Weather Forecast

Advertisements
Track Severe Weather on mobile